M V Monarch — ZGBV3 — position and weather

sailwx.info

Track history (hours):
 
Tides and Currents Weather Stations Pressure Air Temp Water Temp Dewpoint Dewpoint Depression Visibility Wind Speed Wind Dir Waves Ship Positions

M V Monarch

Last reported at 2016-Sep-26 08:31 UTC. Time now 2016-Sep-26 10:31 UTC.
Position N 26°04' W 080°08'.

Length 46 m; draft 2.6 m.

Type: Pleasure craft. MMSI: 319927000.

Date/timePositionNaut miles runAvg speedWind from/ knotsBaromVisibWave heightAir tempDewpointWater temp
2016-Sep-26 08:31N 26°04' W 080°08'0 0.0
2016-Sep-26 02:25N 26°04' W 080°08'0 0.0
2016-Sep-26 01:28N 26°04' W 080°08'0 0.0
2016-Sep-26 00:28N 26°04' W 080°08'0 0.0
2016-Sep-25 21:28N 26°04' W 080°08'2 0.6
2016-Sep-25 17:33N 26°06' W 080°07'10 9.7
2016-Sep-25 16:33N 25°56' W 080°05'1110.2
2016-Sep-25 15:31N 25°46' W 080°08'0 0.0
2016-Sep-25 14:31N 25°46' W 080°08'0 0.0
2016-Sep-25 12:31N 25°46' W 080°08'0 0.0
2016-Sep-25 11:31N 25°46' W 080°08'0 0.0
2016-Sep-25 10:31N 25°46' W 080°08'0 0.0
2016-Sep-25 09:31N 25°46' W 080°08'0 0.0
2016-Sep-25 07:31N 25°46' W 080°08'0 0.0
2016-Sep-25 04:27N 25°46' W 080°08'0 0.0
2016-Sep-25 00:31N 25°46' W 080°08'0 0.0
2016-Sep-24 22:31N 25°46' W 080°08'4 4.3
2016-Sep-24 21:33N 25°46' W 080°04'13 0.4
2016-Sep-23 16:33N 25°45' W 079°50'1514.8
2016-Sep-23 15:34N 25°46' W 080°06'2 1.2
2016-Sep-23 13:33N 25°46' W 080°08'0 0.0
2016-Sep-23 09:33N 25°46' W 080°08'0 0.0
2016-Sep-23 06:33N 25°46' W 080°08'0 0.0
2016-Sep-23 04:33N 25°46' W 080°08'0 0.0
2016-Sep-23 03:33N 25°46' W 080°08'0 0.0
2016-Sep-23 02:33N 25°46' W 080°08'0 0.0
2016-Sep-23 01:33N 25°46' W 080°08'0 0.0
2016-Sep-23 00:33N 25°46' W 080°08'0 0.0
2016-Sep-22 23:33N 25°46' W 080°08'0 0.0
2016-Sep-22 20:33N 25°46' W 080°08'0 0.0
2016-Sep-22 12:33N 25°46' W 080°08'0 0.0
2016-Sep-22 04:33N 25°46' W 080°08'0 0.0
2016-Sep-22 03:33N 25°46' W 080°08'0 0.0
2016-Sep-22 00:33N 25°46' W 080°08'0 0.0
2016-Sep-21 23:33N 25°46' W 080°08'0 0.0
2016-Sep-21 22:30N 25°46' W 080°08'0 0.0
2016-Sep-21 19:33N 25°46' W 080°08'0 0.0
2016-Sep-21 16:33N 25°46' W 080°08'0 0.0
2016-Sep-21 09:33N 25°46' W 080°08'0 0.0
2016-Sep-21 08:33N 25°46' W 080°08'0 0.0
2016-Sep-21 05:33N 25°46' W 080°08'0 0.0
2016-Sep-21 03:33N 25°46' W 080°08'0 0.0
2016-Sep-21 02:33N 25°46' W 080°08'0 0.0
2016-Sep-20 17:33N 25°46' W 080°08'19 6.3
2016-Sep-20 14:33N 26°05' W 080°05'3 2.2
2016-Sep-20 13:25N 26°06' W 080°07'0 0.0
2016-Sep-20 10:28N 26°06' W 080°07'0 0.0
2016-Sep-20 08:31N 26°06' W 080°07'0 0.0
2016-Sep-20 07:31N 26°06' W 080°07'0 0.0
2016-Sep-20 06:28N 26°06' W 080°07'0 0.0
2016-Sep-20 02:31N 26°06' W 080°07'0 0.0
2016-Sep-19 23:25N 26°06' W 080°07'0 0.0
2016-Sep-19 19:28N 26°06' W 080°07'0 0.0
2016-Sep-19 18:31N 26°06' W 080°07'0 0.0
2016-Sep-19 16:28N 26°06' W 080°07'0 0.0
2016-Sep-19 14:31N 26°06' W 080°07'0 0.0
2016-Sep-19 13:31N 26°06' W 080°07'0 0.0
2016-Sep-19 12:31N 26°06' W 080°07'0 0.0
2016-Sep-19 11:31N 26°06' W 080°07'0 0.0
2016-Sep-19 09:22N 26°06' W 080°07'0 0.0
2016-Sep-19 07:25N 26°06' W 080°07'0 0.0
2016-Sep-19 06:25N 26°06' W 080°07'0 0.0
2016-Sep-19 03:31N 26°06' W 080°07'0 0.0
2016-Sep-19 02:31N 26°06' W 080°07'0 0.0
2016-Sep-19 00:16N 26°06' W 080°07'0 0.0
2016-Sep-18 19:22N 26°06' W 080°07'0 0.0
2016-Sep-18 15:28N 26°06' W 080°07'0 0.0
2016-Sep-18 14:28N 26°06' W 080°07'0 0.0
2016-Sep-18 10:31N 26°06' W 080°07'0 0.0
2016-Sep-18 09:34N 26°06' W 080°07'0 0.0
2016-Sep-18 02:33N 26°06' W 080°07'0 0.0
2016-Sep-18 01:24N 26°06' W 080°07'0 0.0
2016-Sep-18 00:27N 26°06' W 080°07'0 0.0
2016-Sep-17 22:28N 26°06' W 080°07'0 0.0
2016-Sep-17 21:31N 26°06' W 080°07'0 0.0
2016-Sep-17 20:31N 26°06' W 080°07'0 0.0
2016-Sep-17 19:15N 26°06' W 080°07'0 0.0
2016-Sep-17 13:33N 26°06' W 080°07'0 0.0
2016-Sep-17 12:33N 26°06' W 080°07'0 0.0
2016-Sep-17 10:24N 26°06' W 080°07'0 0.0
2016-Sep-17 09:24N 26°06' W 080°07'0 0.0
2016-Sep-17 08:28N 26°06' W 080°07'0 0.0
2016-Sep-17 07:27N 26°06' W 080°07'0 0.0
2016-Sep-17 05:30N 26°06' W 080°07'0 0.0
2016-Sep-17 04:30N 26°06' W 080°07'0 0.0
2016-Sep-17 00:33N 26°06' W 080°07'0 0.0
2016-Sep-16 17:27N 26°06' W 080°07'0 0.0
2016-Sep-16 15:33N 26°06' W 080°07'0 0.0
2016-Sep-16 12:33N 26°06' W 080°07'0 0.0
2016-Sep-16 09:33N 26°06' W 080°07'  
Track history (hours):
 
Tides and Currents Weather Stations Pressure Air Temp Water Temp Dewpoint Dewpoint Depression Visibility Wind Speed Wind Dir Waves Ship Positions

M V Monarch

Last reported at 2016-Sep-26 08:31 UTC. Time now 2016-Sep-26 10:31 UTC.
Position N 26°04' W 080°08'.

Length 46 m; draft 2.6 m.

Type: Pleasure craft. MMSI: 319927000.

Date/timePositionNaut miles runAvg speedWind from/ knotsBaromVisibWave heightAir tempDewpointWater temp
2016-Sep-26 08:31N 26°04' W 080°08'0 0.0
2016-Sep-26 02:25N 26°04' W 080°08'0 0.0
2016-Sep-26 01:28N 26°04' W 080°08'0 0.0
2016-Sep-26 00:28N 26°04' W 080°08'0 0.0
2016-Sep-25 21:28N 26°04' W 080°08'2 0.6
2016-Sep-25 17:33N 26°06' W 080°07'10 9.7
2016-Sep-25 16:33N 25°56' W 080°05'1110.2
2016-Sep-25 15:31N 25°46' W 080°08'0 0.0
2016-Sep-25 14:31N 25°46' W 080°08'0 0.0
2016-Sep-25 12:31N 25°46' W 080°08'0 0.0
2016-Sep-25 11:31N 25°46' W 080°08'0 0.0
2016-Sep-25 10:31N 25°46' W 080°08'0 0.0
2016-Sep-25 09:31N 25°46' W 080°08'0 0.0
2016-Sep-25 07:31N 25°46' W 080°08'0 0.0
2016-Sep-25 04:27N 25°46' W 080°08'0 0.0
2016-Sep-25 00:31N 25°46' W 080°08'0 0.0
2016-Sep-24 22:31N 25°46' W 080°08'4 4.3
2016-Sep-24 21:33N 25°46' W 080°04'13 0.4
2016-Sep-23 16:33N 25°45' W 079°50'1514.8
2016-Sep-23 15:34N 25°46' W 080°06'2 1.2
2016-Sep-23 13:33N 25°46' W 080°08'0 0.0
2016-Sep-23 09:33N 25°46' W 080°08'0 0.0
2016-Sep-23 06:33N 25°46' W 080°08'0 0.0
2016-Sep-23 04:33N 25°46' W 080°08'0 0.0
2016-Sep-23 03:33N 25°46' W 080°08'0 0.0
2016-Sep-23 02:33N 25°46' W 080°08'0 0.0
2016-Sep-23 01:33N 25°46' W 080°08'0 0.0
2016-Sep-23 00:33N 25°46' W 080°08'0 0.0
2016-Sep-22 23:33N 25°46' W 080°08'0 0.0
2016-Sep-22 20:33N 25°46' W 080°08'0 0.0
2016-Sep-22 12:33N 25°46' W 080°08'0 0.0
2016-Sep-22 04:33N 25°46' W 080°08'0 0.0
2016-Sep-22 03:33N 25°46' W 080°08'0 0.0
2016-Sep-22 00:33N 25°46' W 080°08'0 0.0
2016-Sep-21 23:33N 25°46' W 080°08'0 0.0
2016-Sep-21 22:30N 25°46' W 080°08'0 0.0
2016-Sep-21 19:33N 25°46' W 080°08'0 0.0
2016-Sep-21 16:33N 25°46' W 080°08'0 0.0
2016-Sep-21 09:33N 25°46' W 080°08'0 0.0
2016-Sep-21 08:33N 25°46' W 080°08'0 0.0
2016-Sep-21 05:33N 25°46' W 080°08'0 0.0
2016-Sep-21 03:33N 25°46' W 080°08'0 0.0
2016-Sep-21 02:33N 25°46' W 080°08'0 0.0
2016-Sep-20 17:33N 25°46' W 080°08'19 6.3
2016-Sep-20 14:33N 26°05' W 080°05'3 2.2
2016-Sep-20 13:25N 26°06' W 080°07'0 0.0
2016-Sep-20 10:28N 26°06' W 080°07'0 0.0
2016-Sep-20 08:31N 26°06' W 080°07'0 0.0
2016-Sep-20 07:31N 26°06' W 080°07'0 0.0
2016-Sep-20 06:28N 26°06' W 080°07'0 0.0
2016-Sep-20 02:31N 26°06' W 080°07'0 0.0
2016-Sep-19 23:25N 26°06' W 080°07'0 0.0
2016-Sep-19 19:28N 26°06' W 080°07'0 0.0
2016-Sep-19 18:31N 26°06' W 080°07'0 0.0
2016-Sep-19 16:28N 26°06' W 080°07'0 0.0
2016-Sep-19 14:31N 26°06' W 080°07'0 0.0
2016-Sep-19 13:31N 26°06' W 080°07'0 0.0
2016-Sep-19 12:31N 26°06' W 080°07'0 0.0
2016-Sep-19 11:31N 26°06' W 080°07'0 0.0
2016-Sep-19 09:22N 26°06' W 080°07'0 0.0
2016-Sep-19 07:25N 26°06' W 080°07'0 0.0
2016-Sep-19 06:25N 26°06' W 080°07'0 0.0
2016-Sep-19 03:31N 26°06' W 080°07'0 0.0
2016-Sep-19 02:31N 26°06' W 080°07'0 0.0
2016-Sep-19 00:16N 26°06' W 080°07'0 0.0
2016-Sep-18 19:22N 26°06' W 080°07'0 0.0
2016-Sep-18 15:28N 26°06' W 080°07'0 0.0
2016-Sep-18 14:28N 26°06' W 080°07'0 0.0
2016-Sep-18 10:31N 26°06' W 080°07'0 0.0
2016-Sep-18 09:34N 26°06' W 080°07'0 0.0
2016-Sep-18 02:33N 26°06' W 080°07'0 0.0
2016-Sep-18 01:24N 26°06' W 080°07'0 0.0
2016-Sep-18 00:27N 26°06' W 080°07'0 0.0
2016-Sep-17 22:28N 26°06' W 080°07'0 0.0
2016-Sep-17 21:31N 26°06' W 080°07'0 0.0
2016-Sep-17 20:31N 26°06' W 080°07'0 0.0
2016-Sep-17 19:15N 26°06' W 080°07'0 0.0
2016-Sep-17 13:33N 26°06' W 080°07'0 0.0
2016-Sep-17 12:33N 26°06' W 080°07'0 0.0
2016-Sep-17 10:24N 26°06' W 080°07'0 0.0
2016-Sep-17 09:24N 26°06' W 080°07'0 0.0
2016-Sep-17 08:28N 26°06' W 080°07'0 0.0
2016-Sep-17 07:27N 26°06' W 080°07'0 0.0
2016-Sep-17 05:30N 26°06' W 080°07'0 0.0
2016-Sep-17 04:30N 26°06' W 080°07'0 0.0
2016-Sep-17 00:33N 26°06' W 080°07'0 0.0
2016-Sep-16 17:27N 26°06' W 080°07'0 0.0
2016-Sep-16 15:33N 26°06' W 080°07'0 0.0
2016-Sep-16 12:33N 26°06' W 080°07'0 0.0
2016-Sep-16 09:33N 26°06' W 080°07'  

Dump ship's entire track history